首页
METAR-TAF:

METAR-TAF

机场 :

Rawlins Municipal Airport (Harvey Field)

Rawlins, 怀俄明州, 美国

纬度: 41-48-20N, 经度: 107-11-59W, 海拔: 2077米

当前天气观测

该预报发布于44分钟前的17:53 UTC
风速11节,风向
温度 26°C
湿度 17%
气压 1020 hPa
能見度: 16.1公里
天空无云

METAR: KRWL 261753Z AUTO 19011KT 10SM CLR 26/M01 A3012 RMK AO2 SLP106 T02561006 10261 20056 56007

时间: 12:37 (18:37 UTC)

预报

该预报发布于53分钟前的17:44 UTC
预报有效从26日的 18点(UTC)到 27日的 18点(UTC)
风速5节,风向西南
能見度: 10公里
少量云层高于25000英尺
从 26日的 1900点(UTC)
风速19节,风向西南,有时为27节阵风
能見度: 10公里
少量云层高于25000英尺
从 27日的 0300点(UTC)
风速8节,风向西南
能見度: 10公里
少量云层高于25000英尺
从 27日的 1200点(UTC)
风速5节,风向
能見度: 10公里
天空无云

TAF: KRWL 261744Z 2618/2718 22005KT P6SM FEW250 FM261900 22019G27KT P6SM FEW250 FM270300 22008KT P6SM FEW250 FM271200 17005KT P6SM SKC

超过4000个机场的气象观测和天气预报(METAR&TAF报告)。

可查询的气象台以黄色和红色小点在地图上表示。

将鼠标移到小点上方,可查看气象台名称。

然后点击查看天气观测和预报。

如需切换地图:点击带黑十字的绿色按钮放大地图;点击带横线的绿色按钮缩小地图;或者点击绿色箭头查看邻近地区的地图。


METAR-TAF: